sensor_id;sensor_type;location;lat;lon;timestamp;pressure;altitude;pressure_sealevel;temperature;humidity
40592;BME280;26301;42.832;23.918;2023-04-22T00:02:11;92823.84;;;6.67;100.00
40592;BME280;26301;42.832;23.918;2023-04-22T00:04:42;92863.28;;;6.84;100.00
40592;BME280;26301;42.832;23.918;2023-04-22T00:07:11;92836.97;;;6.58;100.00
40592;BME280;26301;42.832;23.918;2023-04-22T00:09:37;92870.13;;;6.60;100.00
40592;BME280;26301;42.832;23.918;2023-04-22T00:12:03;92854.31;;;6.45;100.00
40592;BME280;26301;42.832;23.918;2023-04-22T00:14:30;92841.16;;;6.41;100.00
40592;BME280;26301;42.832;23.918;2023-04-22T00:16:56;92871.78;;;6.54;100.00
40592;BME280;26301;42.832;23.918;2023-04-22T00:19:22;92824.94;;;6.29;100.00
40592;BME280;26301;42.832;23.918;2023-04-22T00:21:49;92832.06;;;6.27;100.00
40592;BME280;26301;42.832;23.918;2023-04-22T00:24:15;92829.91;;;6.24;100.00
40592;BME280;26301;42.832;23.918;2023-04-22T00:26:40;92868.81;;;6.39;100.00
40592;BME280;26301;42.832;23.918;2023-04-22T00:29:06;92881.19;;;6.42;100.00
40592;BME280;26301;42.832;23.918;2023-04-22T00:31:32;92866.44;;;6.37;100.00
40592;BME280;26301;42.832;23.918;2023-04-22T00:33:58;92836.09;;;6.16;100.00
40592;BME280;26301;42.832;23.918;2023-04-22T00:36:24;92765.88;;;5.62;100.00
40592;BME280;26301;42.832;23.918;2023-04-22T00:38:52;92822.94;;;5.94;100.00
40592;BME280;26301;42.832;23.918;2023-04-22T00:41:18;92852.34;;;6.10;100.00
40592;BME280;26301;42.832;23.918;2023-04-22T00:43:44;92850.28;;;6.00;100.00
40592;BME280;26301;42.832;23.918;2023-04-22T00:46:11;92836.38;;;5.89;100.00
40592;BME280;26301;42.832;23.918;2023-04-22T00:48:37;92824.13;;;5.91;100.00
40592;BME280;26301;42.832;23.918;2023-04-22T00:51:04;92869.25;;;6.17;100.00
40592;BME280;26301;42.832;23.918;2023-04-22T00:53:30;92863.53;;;6.15;100.00
40592;BME280;26301;42.832;23.918;2023-04-22T00:55:57;92858.22;;;6.17;100.00
40592;BME280;26301;42.832;23.918;2023-04-22T00:58:27;92866.59;;;6.24;100.00
40592;BME280;26301;42.832;23.918;2023-04-22T01:00:53;92841.31;;;6.09;100.00
40592;BME280;26301;42.832;23.918;2023-04-22T01:03:26;92862.69;;;6.22;100.00
40592;BME280;26301;42.832;23.918;2023-04-22T01:05:55;92873.78;;;6.34;100.00
40592;BME280;26301;42.832;23.918;2023-04-22T01:08:20;92859.84;;;6.30;100.00
40592;BME280;26301;42.832;23.918;2023-04-22T01:10:46;92856.84;;;6.33;100.00
40592;BME280;26301;42.832;23.918;2023-04-22T01:13:12;92845.22;;;6.30;100.00
40592;BME280;26301;42.832;23.918;2023-04-22T01:15:38;92830.13;;;6.22;100.00
40592;BME280;26301;42.832;23.918;2023-04-22T01:18:04;92858.69;;;6.44;100.00
40592;BME280;26301;42.832;23.918;2023-04-22T01:20:30;92847.78;;;6.30;100.00
40592;BME280;26301;42.832;23.918;2023-04-22T01:22:56;92872.91;;;6.40;100.00
40592;BME280;26301;42.832;23.918;2023-04-22T01:25:24;92856.34;;;6.24;100.00
40592;BME280;26301;42.832;23.918;2023-04-22T01:27:51;92865.31;;;6.33;100.00
40592;BME280;26301;42.832;23.918;2023-04-22T01:30:19;92868.09;;;6.32;100.00
40592;BME280;26301;42.832;23.918;2023-04-22T01:32:45;92815.84;;;5.96;100.00
40592;BME280;26301;42.832;23.918;2023-04-22T01:35:11;92853.44;;;6.21;100.00
40592;BME280;26301;42.832;23.918;2023-04-22T01:37:38;92856.84;;;6.14;100.00
40592;BME280;26301;42.832;23.918;2023-04-22T01:40:05;92845.25;;;5.93;100.00
40592;BME280;26301;42.832;23.918;2023-04-22T01:42:32;92826.06;;;5.78;100.00
40592;BME280;26301;42.832;23.918;2023-04-22T01:44:58;92839.94;;;5.88;100.00
40592;BME280;26301;42.832;23.918;2023-04-22T01:47:24;92857.63;;;5.97;100.00
40592;BME280;26301;42.832;23.918;2023-04-22T01:49:52;92846.63;;;5.89;100.00
40592;BME280;26301;42.832;23.918;2023-04-22T01:52:17;92818.78;;;5.74;100.00
40592;BME280;26301;42.832;23.918;2023-04-22T01:54:43;92826.63;;;5.80;100.00
40592;BME280;26301;42.832;23.918;2023-04-22T01:57:11;92845.91;;;5.82;100.00
40592;BME280;26301;42.832;23.918;2023-04-22T01:59:38;92816.19;;;5.56;100.00
40592;BME280;26301;42.832;23.918;2023-04-22T02:02:05;92855.72;;;5.67;100.00
40592;BME280;26301;42.832;23.918;2023-04-22T02:04:45;92810.13;;;5.32;100.00
40592;BME280;26301;42.832;23.918;2023-04-22T02:07:11;92819.28;;;5.21;100.00
40592;BME280;26301;42.832;23.918;2023-04-22T02:09:36;92817.63;;;5.09;100.00
40592;BME280;26301;42.832;23.918;2023-04-22T02:12:05;92829.31;;;4.98;100.00
40592;BME280;26301;42.832;23.918;2023-04-22T02:14:30;92822.66;;;4.90;100.00
40592;BME280;26301;42.832;23.918;2023-04-22T02:16:56;92844.97;;;5.08;100.00
40592;BME280;26301;42.832;23.918;2023-04-22T02:19:22;92851.25;;;5.12;100.00
40592;BME280;26301;42.832;23.918;2023-04-22T02:21:48;92820.47;;;4.94;100.00
40592;BME280;26301;42.832;23.918;2023-04-22T02:24:14;92826.44;;;4.81;100.00
40592;BME280;26301;42.832;23.918;2023-04-22T02:26:41;92819.66;;;4.68;100.00
40592;BME280;26301;42.832;23.918;2023-04-22T02:29:07;92839.84;;;4.83;100.00
40592;BME280;26301;42.832;23.918;2023-04-22T02:31:33;92861.56;;;4.99;100.00
40592;BME280;26301;42.832;23.918;2023-04-22T02:33:59;92857.66;;;4.96;100.00
40592;BME280;26301;42.832;23.918;2023-04-22T02:36:24;92856.63;;;5.04;100.00
40592;BME280;26301;42.832;23.918;2023-04-22T02:38:52;92864.31;;;5.04;100.00
40592;BME280;26301;42.832;23.918;2023-04-22T02:41:18;92823.13;;;4.80;100.00
40592;BME280;26301;42.832;23.918;2023-04-22T02:43:43;92862.53;;;5.04;100.00
40592;BME280;26301;42.832;23.918;2023-04-22T02:46:14;92817.03;;;4.81;100.00
40592;BME280;26301;42.832;23.918;2023-04-22T02:48:43;92865.03;;;5.11;100.00
40592;BME280;26301;42.832;23.918;2023-04-22T02:51:09;92828.88;;;4.76;100.00
40592;BME280;26301;42.832;23.918;2023-04-22T02:53:35;92852.63;;;4.83;100.00
40592;BME280;26301;42.832;23.918;2023-04-22T02:56:01;92827.38;;;4.62;100.00
40592;BME280;26301;42.832;23.918;2023-04-22T02:58:27;92871.50;;;4.89;100.00
40592;BME280;26301;42.832;23.918;2023-04-22T03:00:53;92834.69;;;4.58;100.00
40592;BME280;26301;42.832;23.918;2023-04-22T03:03:21;92871.72;;;4.80;100.00
40592;BME280;26301;42.832;23.918;2023-04-22T03:05:47;92831.53;;;4.56;100.00
40592;BME280;26301;42.832;23.918;2023-04-22T03:08:12;92845.69;;;4.58;100.00
40592;BME280;26301;42.832;23.918;2023-04-22T03:10:38;92869.69;;;4.64;100.00
40592;BME280;26301;42.832;23.918;2023-04-22T03:13:05;92864.97;;;4.61;100.00
40592;BME280;26301;42.832;23.918;2023-04-22T03:15:30;92877.75;;;4.61;100.00
40592;BME280;26301;42.832;23.918;2023-04-22T03:17:56;92886.81;;;4.64;100.00
40592;BME280;26301;42.832;23.918;2023-04-22T03:20:22;92836.19;;;4.34;100.00
40592;BME280;26301;42.832;23.918;2023-04-22T03:22:48;92844.03;;;4.32;100.00
40592;BME280;26301;42.832;23.918;2023-04-22T03:25:14;92866.41;;;4.44;100.00
40592;BME280;26301;42.832;23.918;2023-04-22T03:27:40;92859.56;;;4.38;100.00
40592;BME280;26301;42.832;23.918;2023-04-22T03:30:06;92817.63;;;4.07;100.00
40592;BME280;26301;42.832;23.918;2023-04-22T03:32:32;92883.50;;;4.50;100.00
40592;BME280;26301;42.832;23.918;2023-04-22T03:34:58;92890.19;;;4.51;100.00
40592;BME280;26301;42.832;23.918;2023-04-22T03:37:24;92850.75;;;4.27;100.00
40592;BME280;26301;42.832;23.918;2023-04-22T03:39:50;92886.06;;;4.50;100.00
40592;BME280;26301;42.832;23.918;2023-04-22T03:42:16;92881.72;;;4.50;100.00
40592;BME280;26301;42.832;23.918;2023-04-22T03:44:42;92900.19;;;4.59;100.00
40592;BME280;26301;42.832;23.918;2023-04-22T03:47:08;92891.72;;;4.58;100.00
40592;BME280;26301;42.832;23.918;2023-04-22T03:49:34;92861.31;;;4.44;100.00
40592;BME280;26301;42.832;23.918;2023-04-22T03:52:00;92888.78;;;4.62;100.00
40592;BME280;26301;42.832;23.918;2023-04-22T03:54:26;92848.97;;;4.34;100.00
40592;BME280;26301;42.832;23.918;2023-04-22T03:56:52;92849.34;;;4.38;100.00
40592;BME280;26301;42.832;23.918;2023-04-22T03:59:18;92883.44;;;4.63;100.00
40592;BME280;26301;42.832;23.918;2023-04-22T04:01:47;92858.53;;;4.52;100.00
40592;BME280;26301;42.832;23.918;2023-04-22T04:04:13;92897.69;;;4.84;100.00
40592;BME280;26301;42.832;23.918;2023-04-22T04:06:39;92877.84;;;4.79;100.00
40592;BME280;26301;42.832;23.918;2023-04-22T04:09:05;92879.59;;;4.86;100.00
40592;BME280;26301;42.832;23.918;2023-04-22T04:11:30;92896.81;;;5.03;100.00
40592;BME280;26301;42.832;23.918;2023-04-22T04:13:56;92909.72;;;5.15;100.00
40592;BME280;26301;42.832;23.918;2023-04-22T04:16:22;92873.22;;;4.95;100.00
40592;BME280;26301;42.832;23.918;2023-04-22T04:18:49;92902.59;;;5.24;100.00
40592;BME280;26301;42.832;23.918;2023-04-22T04:21:15;92903.91;;;5.33;100.00
40592;BME280;26301;42.832;23.918;2023-04-22T04:23:41;92913.66;;;5.43;100.00
40592;BME280;26301;42.832;23.918;2023-04-22T04:26:07;92887.34;;;5.36;100.00
40592;BME280;26301;42.832;23.918;2023-04-22T04:28:34;92904.88;;;5.57;100.00
40592;BME280;26301;42.832;23.918;2023-04-22T04:31:00;92878.94;;;5.47;100.00
40592;BME280;26301;42.832;23.918;2023-04-22T04:33:30;92913.47;;;5.69;100.00
40592;BME280;26301;42.832;23.918;2023-04-22T04:35:59;92882.38;;;5.59;100.00
40592;BME280;26301;42.832;23.918;2023-04-22T04:38:25;92911.28;;;5.91;100.00
40592;BME280;26301;42.832;23.918;2023-04-22T04:40:51;92913.41;;;6.19;100.00
40592;BME280;26301;42.832;23.918;2023-04-22T04:43:18;92907.63;;;6.43;100.00
40592;BME280;26301;42.832;23.918;2023-04-22T04:45:44;92881.53;;;6.46;100.00
40592;BME280;26301;42.832;23.918;2023-04-22T04:48:13;92912.16;;;6.77;100.00
40592;BME280;26301;42.832;23.918;2023-04-22T04:50:42;92889.66;;;6.91;100.00
40592;BME280;26301;42.832;23.918;2023-04-22T04:53:09;92890.75;;;7.14;100.00
40592;BME280;26301;42.832;23.918;2023-04-22T04:55:35;92891.13;;;7.41;100.00
40592;BME280;26301;42.832;23.918;2023-04-22T04:58:01;92893.59;;;7.59;100.00
40592;BME280;26301;42.832;23.918;2023-04-22T05:00:27;92915.97;;;7.94;100.00
40592;BME280;26301;42.832;23.918;2023-04-22T05:02:53;92920.78;;;8.14;100.00
40592;BME280;26301;42.832;23.918;2023-04-22T05:05:19;92920.19;;;8.35;100.00
40592;BME280;26301;42.832;23.918;2023-04-22T05:07:45;92913.81;;;8.50;100.00
40592;BME280;26301;42.832;23.918;2023-04-22T05:10:11;92934.19;;;8.91;100.00
40592;BME280;26301;42.832;23.918;2023-04-22T05:12:37;92927.38;;;9.14;100.00
40592;BME280;26301;42.832;23.918;2023-04-22T05:15:04;92913.44;;;9.27;98.40
40592;BME280;26301;42.832;23.918;2023-04-22T05:17:31;92938.22;;;9.61;96.50
40592;BME280;26301;42.832;23.918;2023-04-22T05:19:57;92936.31;;;9.69;97.39
40592;BME280;26301;42.832;23.918;2023-04-22T05:22:26;92950.13;;;9.96;95.69
40592;BME280;26301;42.832;23.918;2023-04-22T05:24:52;92938.16;;;10.07;91.36
40592;BME280;26301;42.832;23.918;2023-04-22T05:27:21;92948.69;;;10.39;87.84
40592;BME280;26301;42.832;23.918;2023-04-22T05:29:48;92930.06;;;10.37;87.80
40592;BME280;26301;42.832;23.918;2023-04-22T05:32:14;92949.81;;;10.65;86.60
40592;BME280;26301;42.832;23.918;2023-04-22T05:34:45;92911.84;;;10.66;88.11
40592;BME280;26301;42.832;23.918;2023-04-22T05:37:12;92946.19;;;10.88;87.89
40592;BME280;26301;42.832;23.918;2023-04-22T05:39:40;92949.56;;;10.89;87.63
40592;BME280;26301;42.832;23.918;2023-04-22T05:42:07;92931.38;;;10.79;86.23
40592;BME280;26301;42.832;23.918;2023-04-22T05:44:33;92938.88;;;11.02;85.13
40592;BME280;26301;42.832;23.918;2023-04-22T05:47:02;92923.72;;;11.11;84.74
40592;BME280;26301;42.832;23.918;2023-04-22T05:49:28;92940.00;;;11.38;85.23
40592;BME280;26301;42.832;23.918;2023-04-22T05:51:54;92914.34;;;11.32;82.77
40592;BME280;26301;42.832;23.918;2023-04-22T05:54:20;92931.34;;;11.55;83.13
40592;BME280;26301;42.832;23.918;2023-04-22T05:56:46;92919.50;;;11.59;81.63
40592;BME280;26301;42.832;23.918;2023-04-22T05:59:13;92940.97;;;11.86;79.25
40592;BME280;26301;42.832;23.918;2023-04-22T06:01:38;92913.03;;;11.88;77.99
40592;BME280;26301;42.832;23.918;2023-04-22T06:04:04;92924.81;;;12.06;77.27
40592;BME280;26301;42.832;23.918;2023-04-22T06:06:31;92906.97;;;12.15;76.72
40592;BME280;26301;42.832;23.918;2023-04-22T06:08:58;92921.63;;;12.42;71.50
40592;BME280;26301;42.832;23.918;2023-04-22T06:11:26;92939.38;;;12.65;72.59
40592;BME280;26301;42.832;23.918;2023-04-22T06:13:53;92855.00;;;12.22;72.61
40592;BME280;26301;42.832;23.918;2023-04-22T06:16:21;92918.72;;;12.80;66.86
40592;BME280;26301;42.832;23.918;2023-04-22T06:18:47;92951.75;;;13.16;66.54
40592;BME280;26301;42.832;23.918;2023-04-22T06:21:14;92927.38;;;13.17;68.15
40592;BME280;26301;42.832;23.918;2023-04-22T06:23:40;92927.91;;;13.14;66.11
40592;BME280;26301;42.832;23.918;2023-04-22T06:26:06;92945.78;;;13.20;67.67
40592;BME280;26301;42.832;23.918;2023-04-22T06:28:33;92952.00;;;13.14;67.96
40592;BME280;26301;42.832;23.918;2023-04-22T06:30:58;92963.44;;;13.23;68.00
40592;BME280;26301;42.832;23.918;2023-04-22T06:33:24;92964.72;;;13.16;68.85
40592;BME280;26301;42.832;23.918;2023-04-22T06:35:54;92964.97;;;13.14;68.77
40592;BME280;26301;42.832;23.918;2023-04-22T06:38:20;92970.75;;;13.26;70.66
40592;BME280;26301;42.832;23.918;2023-04-22T06:40:46;92957.75;;;13.21;69.13
40592;BME280;26301;42.832;23.918;2023-04-22T06:43:12;92941.97;;;13.38;66.83
40592;BME280;26301;42.832;23.918;2023-04-22T06:45:38;92959.41;;;13.53;69.96
40592;BME280;26301;42.832;23.918;2023-04-22T06:48:04;92962.25;;;13.46;69.12
40592;BME280;26301;42.832;23.918;2023-04-22T06:50:30;92935.28;;;13.58;67.68
40592;BME280;26301;42.832;23.918;2023-04-22T06:52:56;92958.94;;;13.97;72.26
40592;BME280;26301;42.832;23.918;2023-04-22T06:55:22;92968.25;;;14.29;65.24
40592;BME280;26301;42.832;23.918;2023-04-22T06:57:49;92965.13;;;14.37;63.57
40592;BME280;26301;42.832;23.918;2023-04-22T07:00:16;92936.25;;;14.44;63.56
40592;BME280;26301;42.832;23.918;2023-04-22T07:02:42;92934.69;;;14.68;67.77
40592;BME280;26301;42.832;23.918;2023-04-22T07:05:08;92933.59;;;14.84;63.15
40592;BME280;26301;42.832;23.918;2023-04-22T07:07:35;92962.84;;;15.16;61.83
40592;BME280;26301;42.832;23.918;2023-04-22T07:10:02;92965.22;;;15.12;65.73
40592;BME280;26301;42.832;23.918;2023-04-22T07:12:29;92972.53;;;15.00;61.95
40592;BME280;26301;42.832;23.918;2023-04-22T07:14:55;92973.13;;;14.81;61.23
40592;BME280;26301;42.832;23.918;2023-04-22T07:17:21;92975.25;;;14.69;63.31
40592;BME280;26301;42.832;23.918;2023-04-22T07:19:48;92970.84;;;14.54;64.53
40592;BME280;26301;42.832;23.918;2023-04-22T07:22:14;92969.56;;;14.21;64.91
40592;BME280;26301;42.832;23.918;2023-04-22T07:24:40;92971.66;;;14.14;63.70
40592;BME280;26301;42.832;23.918;2023-04-22T07:27:06;92971.91;;;14.12;60.64
40592;BME280;26301;42.832;23.918;2023-04-22T07:29:32;92973.72;;;14.02;60.17
40592;BME280;26301;42.832;23.918;2023-04-22T07:31:59;92976.59;;;14.05;62.84
40592;BME280;26301;42.832;23.918;2023-04-22T07:34:24;92957.09;;;13.77;62.39
40592;BME280;26301;42.832;23.918;2023-04-22T07:36:50;92979.91;;;13.60;61.37
40592;BME280;26301;42.832;23.918;2023-04-22T07:39:18;92960.16;;;13.43;64.83
40592;BME280;26301;42.832;23.918;2023-04-22T07:41:44;92991.88;;;13.66;64.53
40592;BME280;26301;42.832;23.918;2023-04-22T07:44:10;92966.28;;;13.17;62.27
40592;BME280;26301;42.832;23.918;2023-04-22T07:46:40;92986.00;;;13.23;64.10
40592;BME280;26301;42.832;23.918;2023-04-22T07:49:07;92963.84;;;12.90;62.27
40592;BME280;26301;42.832;23.918;2023-04-22T07:51:33;93002.28;;;13.08;62.78
40592;BME280;26301;42.832;23.918;2023-04-22T07:53:59;92961.00;;;12.91;65.31
40592;BME280;26301;42.832;23.918;2023-04-22T07:56:25;92999.75;;;13.23;62.51
40592;BME280;26301;42.832;23.918;2023-04-22T07:58:51;93002.72;;;13.47;64.18
40592;BME280;26301;42.832;23.918;2023-04-22T08:01:17;92984.59;;;13.63;62.47
40592;BME280;26301;42.832;23.918;2023-04-22T08:03:43;92999.56;;;13.30;65.31
40592;BME280;26301;42.832;23.918;2023-04-22T08:06:09;93003.19;;;13.34;64.93
40592;BME280;26301;42.832;23.918;2023-04-22T08:08:38;93008.16;;;13.36;66.75
40592;BME280;26301;42.832;23.918;2023-04-22T08:11:06;93007.78;;;13.22;66.91
40592;BME280;26301;42.832;23.918;2023-04-22T08:13:32;92996.78;;;12.89;67.62
40592;BME280;26301;42.832;23.918;2023-04-22T08:16:00;93011.38;;;13.11;67.65
40592;BME280;26301;42.832;23.918;2023-04-22T08:18:28;93011.81;;;13.45;68.94
40592;BME280;26301;42.832;23.918;2023-04-22T08:20:55;93014.47;;;13.86;64.95
40592;BME280;26301;42.832;23.918;2023-04-22T08:23:21;93016.03;;;13.92;66.24
40592;BME280;26301;42.832;23.918;2023-04-22T08:25:47;93014.72;;;13.74;61.79
40592;BME280;26301;42.832;23.918;2023-04-22T08:28:14;93022.25;;;13.86;64.07
40592;BME280;26301;42.832;23.918;2023-04-22T08:30:40;92990.34;;;13.90;63.89
40592;BME280;26301;42.832;23.918;2023-04-22T08:33:06;92993.19;;;14.09;62.78
40592;BME280;26301;42.832;23.918;2023-04-22T08:35:36;93011.63;;;14.13;62.49
40592;BME280;26301;42.832;23.918;2023-04-22T08:38:02;93003.06;;;14.07;62.18
40592;BME280;26301;42.832;23.918;2023-04-22T08:40:28;92994.75;;;13.85;59.93
40592;BME280;26301;42.832;23.918;2023-04-22T08:42:54;93019.94;;;14.10;68.36
40592;BME280;26301;42.832;23.918;2023-04-22T08:45:22;93021.25;;;14.17;63.87
40592;BME280;26301;42.832;23.918;2023-04-22T08:47:52;93017.63;;;14.24;63.46
40592;BME280;26301;42.832;23.918;2023-04-22T08:50:20;92993.19;;;14.40;59.67
40592;BME280;26301;42.832;23.918;2023-04-22T08:52:47;92989.03;;;14.39;60.66
40592;BME280;26301;42.832;23.918;2023-04-22T08:55:13;92986.72;;;14.32;62.49
40592;BME280;26301;42.832;23.918;2023-04-22T08:57:40;93017.06;;;14.68;60.90
40592;BME280;26301;42.832;23.918;2023-04-22T09:00:06;93019.44;;;14.54;60.86
40592;BME280;26301;42.832;23.918;2023-04-22T09:02:36;92990.59;;;14.45;61.20
40592;BME280;26301;42.832;23.918;2023-04-22T09:05:05;92991.91;;;14.22;64.06
40592;BME280;26301;42.832;23.918;2023-04-22T09:07:31;93010.09;;;14.27;64.00
40592;BME280;26301;42.832;23.918;2023-04-22T09:09:58;93000.22;;;14.24;64.99
40592;BME280;26301;42.832;23.918;2023-04-22T09:12:25;93013.72;;;14.31;64.52
40592;BME280;26301;42.832;23.918;2023-04-22T09:14:51;92990.31;;;14.11;62.74
40592;BME280;26301;42.832;23.918;2023-04-22T09:17:33;93019.69;;;14.22;62.05
40592;BME280;26301;42.832;23.918;2023-04-22T09:20:02;93017.63;;;14.24;62.86
40592;BME280;26301;42.832;23.918;2023-04-22T09:22:36;92983.34;;;14.06;63.81
40592;BME280;26301;42.832;23.918;2023-04-22T09:25:03;93013.19;;;14.39;61.05
40592;BME280;26301;42.832;23.918;2023-04-22T09:27:29;92982.31;;;14.17;61.38
40592;BME280;26301;42.832;23.918;2023-04-22T09:29:55;93011.63;;;14.28;61.42
40592;BME280;26301;42.832;23.918;2023-04-22T09:32:23;92988.00;;;14.09;63.26
40592;BME280;26301;42.832;23.918;2023-04-22T09:34:52;93008.00;;;14.24;63.10
40592;BME280;26301;42.832;23.918;2023-04-22T09:37:27;93002.81;;;14.09;65.90
40592;BME280;26301;42.832;23.918;2023-04-22T09:39:53;92980.47;;;13.82;65.09
40592;BME280;26301;42.832;23.918;2023-04-22T09:42:20;93007.97;;;13.78;65.80
40592;BME280;26301;42.832;23.918;2023-04-22T09:44:48;92974.69;;;13.49;66.30
40592;BME280;26301;42.832;23.918;2023-04-22T09:47:19;92990.28;;;13.55;67.29
40592;BME280;26301;42.832;23.918;2023-04-22T09:49:47;93007.69;;;13.54;68.42
40592;BME280;26301;42.832;23.918;2023-04-22T09:52:23;92980.56;;;13.19;69.79
40592;BME280;26301;42.832;23.918;2023-04-22T09:54:52;92988.88;;;13.21;70.99
40592;BME280;26301;42.832;23.918;2023-04-22T09:57:19;93006.84;;;13.33;71.14
40592;BME280;26301;42.832;23.918;2023-04-22T09:59:45;92998.00;;;13.34;68.53
40592;BME280;26301;42.832;23.918;2023-04-22T10:02:13;93002.84;;;13.20;68.42
40592;BME280;26301;42.832;23.918;2023-04-22T10:04:39;92979.72;;;13.03;69.92
40592;BME280;26301;42.832;23.918;2023-04-22T10:07:05;93003.34;;;13.17;71.91
40592;BME280;26301;42.832;23.918;2023-04-22T10:09:32;93013.53;;;13.29;70.19
40592;BME280;26301;42.832;23.918;2023-04-22T10:11:59;92979.75;;;13.09;70.24
40592;BME280;26301;42.832;23.918;2023-04-22T10:14:26;92974.03;;;13.07;71.79
40592;BME280;26301;42.832;23.918;2023-04-22T10:16:56;92996.91;;;13.15;73.45
40592;BME280;26301;42.832;23.918;2023-04-22T10:19:25;92965.69;;;12.99;74.74
40592;BME280;26301;42.832;23.918;2023-04-22T10:21:55;92957.97;;;13.10;75.41
40592;BME280;26301;42.832;23.918;2023-04-22T10:24:25;92998.81;;;13.40;70.35
40592;BME280;26301;42.832;23.918;2023-04-22T10:26:57;92994.88;;;13.32;69.92
40592;BME280;26301;42.832;23.918;2023-04-22T10:29:25;92984.50;;;13.32;75.18
40592;BME280;26301;42.832;23.918;2023-04-22T10:34:36;92987.63;;;13.29;76.63
40592;BME280;26301;42.832;23.918;2023-04-22T10:39:33;92970.25;;;13.35;79.37
40592;BME280;26301;42.832;23.918;2023-04-22T10:44:52;93001.72;;;13.74;76.91
40592;BME280;26301;42.832;23.918;2023-04-22T10:47:28;92996.28;;;13.81;77.56
40592;BME280;26301;42.832;23.918;2023-04-22T10:52:47;92955.53;;;14.07;73.22
40592;BME280;26301;42.832;23.918;2023-04-22T10:55:14;92983.31;;;14.22;75.24
40592;BME280;26301;42.832;23.918;2023-04-22T10:57:43;92991.91;;;14.22;69.18
40592;BME280;26301;42.832;23.918;2023-04-22T11:00:26;92977.09;;;14.33;70.14
40592;BME280;26301;42.832;23.918;2023-04-22T11:05:26;92982.75;;;14.71;69.48
40592;BME280;26301;42.832;23.918;2023-04-22T11:07:54;92965.59;;;14.75;64.70
40592;BME280;26301;42.832;23.918;2023-04-22T11:10:43;92964.78;;;14.90;63.89
40592;BME280;26301;42.832;23.918;2023-04-22T11:13:12;92965.13;;;14.57;63.93
40592;BME280;26301;42.832;23.918;2023-04-22T11:15:40;92976.78;;;14.65;58.41
40592;BME280;26301;42.832;23.918;2023-04-22T11:18:14;92976.53;;;14.61;56.52
40592;BME280;26301;42.832;23.918;2023-04-22T11:20:43;92986.44;;;14.03;62.07
40592;BME280;26301;42.832;23.918;2023-04-22T11:23:09;92973.56;;;13.15;65.43
40592;BME280;26301;42.832;23.918;2023-04-22T11:25:35;92986.72;;;12.50;69.00
40592;BME280;26301;42.832;23.918;2023-04-22T11:28:02;92971.88;;;12.03;75.35
40592;BME280;26301;42.832;23.918;2023-04-22T11:30:28;92982.59;;;11.85;79.47
40592;BME280;26301;42.832;23.918;2023-04-22T11:32:57;93018.00;;;11.79;80.97
40592;BME280;26301;42.832;23.918;2023-04-22T11:35:31;92967.38;;;11.07;80.24
40592;BME280;26301;42.832;23.918;2023-04-22T11:38:03;92971.31;;;10.93;82.61
40592;BME280;26301;42.832;23.918;2023-04-22T11:40:41;93008.91;;;11.28;82.66
40592;BME280;26301;42.832;23.918;2023-04-22T11:43:08;93011.63;;;11.38;83.74
40592;BME280;26301;42.832;23.918;2023-04-22T11:45:38;92976.34;;;11.27;85.71
40592;BME280;26301;42.832;23.918;2023-04-22T11:48:08;92998.72;;;11.65;87.25
40592;BME280;26301;42.832;23.918;2023-04-22T11:50:40;92969.03;;;11.45;87.40
40592;BME280;26301;42.832;23.918;2023-04-22T11:53:48;93008.44;;;11.80;85.97
40592;BME280;26301;42.832;23.918;2023-04-22T11:56:01;92992.50;;;11.66;86.43
40592;BME280;26301;42.832;23.918;2023-04-22T11:58:29;92983.34;;;11.53;87.28
40592;BME280;26301;42.832;23.918;2023-04-22T12:00:58;92995.03;;;11.61;87.53
40592;BME280;26301;42.832;23.918;2023-04-22T12:03:28;93007.16;;;11.82;88.06
40592;BME280;26301;42.832;23.918;2023-04-22T12:05:56;93003.69;;;11.72;87.48
40592;BME280;26301;42.832;23.918;2023-04-22T12:11:04;92987.81;;;11.63;86.98
40592;BME280;26301;42.832;23.918;2023-04-22T12:16:04;93009.63;;;11.72;88.79
40592;BME280;26301;42.832;23.918;2023-04-22T12:18:31;92966.34;;;11.62;88.96
40592;BME280;26301;42.832;23.918;2023-04-22T12:23:56;93001.78;;;12.16;88.38
40592;BME280;26301;42.832;23.918;2023-04-22T12:26:23;92994.66;;;12.33;86.99
40592;BME280;26301;42.832;23.918;2023-04-22T12:28:52;92997.25;;;12.39;83.54
40592;BME280;26301;42.832;23.918;2023-04-22T12:31:21;92959.34;;;12.27;85.24
40592;BME280;26301;42.832;23.918;2023-04-22T12:33:48;92968.84;;;12.54;82.05
40592;BME280;26301;42.832;23.918;2023-04-22T12:36:14;92993.06;;;12.75;75.81
40592;BME280;26301;42.832;23.918;2023-04-22T12:38:42;92988.69;;;12.80;77.05
40592;BME280;26301;42.832;23.918;2023-04-22T12:41:08;92992.66;;;12.98;77.74
40592;BME280;26301;42.832;23.918;2023-04-22T12:43:34;92972.97;;;13.02;76.81
40592;BME280;26301;42.832;23.918;2023-04-22T12:46:09;92981.41;;;13.30;72.94
40592;BME280;26301;42.832;23.918;2023-04-22T12:48:35;92967.41;;;13.36;71.32
40592;BME280;26301;42.832;23.918;2023-04-22T12:51:04;92922.22;;;13.22;70.46
40592;BME280;26301;42.832;23.918;2023-04-22T12:53:30;92936.00;;;13.38;68.50
40592;BME280;26301;42.832;23.918;2023-04-22T12:55:57;92966.69;;;13.77;69.74
40592;BME280;26301;42.832;23.918;2023-04-22T12:58:28;92963.31;;;13.76;68.44
40592;BME280;26301;42.832;23.918;2023-04-22T13:00:56;92959.94;;;13.86;68.57
40592;BME280;26301;42.832;23.918;2023-04-22T13:03:22;92963.34;;;14.07;71.47
40592;BME280;26301;42.832;23.918;2023-04-22T13:05:48;92941.00;;;14.16;69.57
40592;BME280;26301;42.832;23.918;2023-04-22T13:08:19;92958.63;;;14.55;64.82
40592;BME280;26301;42.832;23.918;2023-04-22T13:10:46;92938.09;;;14.58;66.56
40592;BME280;26301;42.832;23.918;2023-04-22T13:13:13;92947.97;;;14.46;62.82